createdAt,value
2022-11-05T00:01:02.609Z,11.37
2022-11-05T00:03:48.795Z,11.40
2022-11-05T00:06:34.982Z,13.13
2022-11-05T00:09:20.255Z,24.57
2022-11-05T00:12:05.567Z,11.77
2022-11-05T00:14:55.651Z,10.20
2022-11-05T00:17:22.499Z,15.57
2022-11-05T00:19:49.243Z,11.77
2022-11-05T00:22:34.875Z,13.63
2022-11-05T00:25:16.957Z,14.20
2022-11-05T00:27:45.441Z,13.83
2022-11-05T00:30:16.891Z,13.87
2022-11-05T00:32:44.053Z,13.27
2022-11-05T00:35:11.342Z,17.17
2022-11-05T00:37:38.608Z,13.93
2022-11-05T00:40:06.038Z,19.00
2022-11-05T00:42:51.953Z,17.23
2022-11-05T00:45:19.102Z,18.53
2022-11-05T00:48:04.562Z,17.07
2022-11-05T00:50:32.241Z,18.93
2022-11-05T00:53:00.664Z,19.47
2022-11-05T00:55:47.747Z,20.13
2022-11-05T00:58:19.556Z,21.57
2022-11-05T01:01:05.021Z,19.43
2022-11-05T01:03:36.691Z,25.80
2022-11-05T01:06:16.735Z,20.83
2022-11-05T01:08:45.116Z,22.37
2022-11-05T01:11:13.182Z,17.27
2022-11-05T01:13:40.633Z,16.30
2022-11-05T01:16:09.948Z,18.27
2022-11-05T01:18:38.871Z,17.37
2022-11-05T01:21:15.975Z,14.57
2022-11-05T01:23:43.027Z,17.33
2022-11-05T01:26:09.981Z,15.63
2022-11-05T01:28:36.810Z,21.97
2022-11-05T01:31:03.902Z,16.37
2022-11-05T01:33:30.648Z,14.67
2022-11-05T01:35:57.798Z,13.37
2022-11-05T01:38:24.729Z,16.53
2022-11-05T01:40:53.291Z,15.27
2022-11-05T01:43:22.427Z,15.23
2022-11-05T01:45:53.028Z,18.60
2022-11-05T01:48:33.879Z,12.87
2022-11-05T01:51:11.893Z,14.03
2022-11-05T01:53:55.630Z,19.60
2022-11-05T01:56:29.201Z,13.60
2022-11-05T01:59:01.246Z,14.57
2022-11-05T02:01:30.429Z,12.60
2022-11-05T02:04:03.659Z,13.13
2022-11-05T02:06:33.555Z,13.10
2022-11-05T02:09:03.546Z,15.40
2022-11-05T02:11:30.855Z,15.27
2022-11-05T02:13:58.000Z,14.90
2022-11-05T02:16:40.252Z,13.13
2022-11-05T02:19:26.424Z,16.53
2022-11-05T02:22:12.007Z,14.27
2022-11-05T02:24:41.998Z,15.27
2022-11-05T02:27:09.235Z,18.43
2022-11-05T02:29:42.727Z,17.87
2022-11-05T02:32:15.266Z,13.00
2022-11-05T02:35:14.964Z,12.43
2022-11-05T02:38:06.735Z,14.70
2022-11-05T02:40:34.240Z,12.97
2022-11-05T02:43:15.201Z,14.40
2022-11-05T02:45:52.085Z,14.53
2022-11-05T02:48:31.608Z,14.17
2022-11-05T02:51:06.675Z,15.20
2022-11-05T02:53:46.030Z,13.17
2022-11-05T02:56:23.011Z,12.90
2022-11-05T02:58:50.278Z,19.50
2022-11-05T03:01:17.661Z,13.23
2022-11-05T03:03:51.722Z,12.70
2022-11-05T03:06:33.970Z,12.67
2022-11-05T03:09:15.975Z,12.50
2022-11-05T03:12:27.178Z,17.43
2022-11-05T03:15:21.501Z,14.37
2022-11-05T03:18:13.944Z,15.73
2022-11-05T03:20:45.484Z,15.30
2022-11-05T03:23:15.448Z,14.53
2022-11-05T03:25:45.739Z,16.03
2022-11-05T03:28:13.879Z,16.10
2022-11-05T03:30:41.755Z,11.97
2022-11-05T03:33:13.576Z,12.07
2022-11-05T03:35:44.387Z,11.83
2022-11-05T03:38:14.591Z,14.60
2022-11-05T03:40:43.416Z,12.30
2022-11-05T03:43:10.872Z,13.40
2022-11-05T03:45:41.534Z,11.23
2022-11-05T03:48:10.890Z,11.37
2022-11-05T03:50:41.240Z,14.33
2022-11-05T03:53:19.761Z,11.00
2022-11-05T03:56:05.682Z,13.93
2022-11-05T03:58:32.926Z,13.87
2022-11-05T04:01:02.154Z,14.57
2022-11-05T04:03:36.088Z,12.67
2022-11-05T04:06:22.927Z,13.67
2022-11-05T04:09:08.849Z,15.07
2022-11-05T04:11:55.098Z,14.53
2022-11-05T04:14:22.507Z,16.53
2022-11-05T04:17:09.628Z,13.87
2022-11-05T04:19:59.358Z,16.47
2022-11-05T04:22:46.306Z,15.30
2022-11-05T04:25:14.166Z,12.77
2022-11-05T04:27:41.507Z,13.10
2022-11-05T04:30:18.503Z,12.37
2022-11-05T04:33:00.967Z,16.47
2022-11-05T04:35:29.250Z,14.33
2022-11-05T04:37:56.662Z,13.30
2022-11-05T04:40:23.932Z,13.03
2022-11-05T04:42:51.568Z,15.30
2022-11-05T04:45:18.762Z,14.73
2022-11-05T04:47:45.919Z,13.33
2022-11-05T04:50:13.314Z,14.50
2022-11-05T04:52:40.830Z,17.33
2022-11-05T04:55:08.557Z,15.87
2022-11-05T04:57:35.693Z,14.00
2022-11-05T05:00:03.397Z,18.23
2022-11-05T05:02:30.492Z,14.17
2022-11-05T05:04:57.685Z,13.40
2022-11-05T05:07:25.770Z,13.20
2022-11-05T05:09:54.616Z,12.77
2022-11-05T05:12:22.114Z,14.03
2022-11-05T05:14:49.593Z,16.13
2022-11-05T05:17:16.686Z,14.13
2022-11-05T05:20:02.302Z,16.47
2022-11-05T05:22:29.493Z,18.70
2022-11-05T05:24:56.792Z,18.70
2022-11-05T05:27:25.991Z,17.00
2022-11-05T05:29:53.053Z,18.57
2022-11-05T05:32:20.149Z,18.33
2022-11-05T05:34:47.240Z,17.43
2022-11-05T05:37:14.350Z,18.23
2022-11-05T05:39:41.401Z,16.00
2022-11-05T05:42:08.471Z,23.77
2022-11-05T05:44:35.542Z,16.77
2022-11-05T05:47:02.658Z,22.97
2022-11-05T05:49:29.757Z,16.37
2022-11-05T05:51:57.419Z,20.80
2022-11-05T05:54:30.737Z,17.83
2022-11-05T05:56:59.382Z,18.97
2022-11-05T05:59:26.468Z,19.10
2022-11-05T06:01:53.697Z,20.13
2022-11-05T06:04:20.952Z,18.20
2022-11-05T06:06:48.355Z,23.00
2022-11-05T06:09:15.582Z,21.00
2022-11-05T06:11:42.999Z,16.53
2022-11-05T06:14:10.846Z,17.07
2022-11-05T06:16:38.995Z,17.63
2022-11-05T06:19:09.121Z,18.37
2022-11-05T06:21:36.443Z,21.03
2022-11-05T06:24:03.846Z,17.30
2022-11-05T06:26:31.111Z,16.87
2022-11-05T06:28:58.252Z,18.70
2022-11-05T06:31:25.449Z,25.20
2022-11-05T06:33:52.571Z,19.40
2022-11-05T06:36:20.265Z,23.77
2022-11-05T06:38:47.588Z,20.57
2022-11-05T06:41:14.762Z,19.77
2022-11-05T06:43:41.926Z,17.87
2022-11-05T06:46:10.370Z,21.13
2022-11-05T06:48:37.732Z,22.90
2022-11-05T06:51:05.459Z,25.50
2022-11-05T06:53:32.733Z,23.43
2022-11-05T06:56:02.613Z,20.30
2022-11-05T06:58:30.845Z,23.30
2022-11-05T07:01:02.932Z,22.23
2022-11-05T07:03:30.488Z,19.00
2022-11-05T07:06:00.158Z,24.73
2022-11-05T07:08:27.900Z,27.00
2022-11-05T07:10:55.042Z,23.80
2022-11-05T07:13:22.200Z,26.87
2022-11-05T07:15:49.325Z,26.37
2022-11-05T07:18:16.470Z,22.60
2022-11-05T07:20:43.630Z,25.47
2022-11-05T07:23:12.180Z,25.87
2022-11-05T07:25:39.895Z,23.60
2022-11-05T07:28:07.460Z,20.93
2022-11-05T07:30:34.976Z,21.37
2022-11-05T07:33:02.124Z,27.60
2022-11-05T07:35:29.331Z,25.57
2022-11-05T07:37:56.538Z,24.33
2022-11-05T07:40:24.909Z,23.73
2022-11-05T07:42:53.192Z,25.93
2022-11-05T07:45:20.908Z,26.67
2022-11-05T07:47:49.152Z,24.53
2022-11-05T07:50:17.512Z,33.93
2022-11-05T07:52:45.152Z,27.97
2022-11-05T07:55:13.428Z,30.27
2022-11-05T07:57:45.115Z,26.80
2022-11-05T08:00:13.930Z,27.30
2022-11-05T08:02:41.771Z,30.13
2022-11-05T08:05:10.206Z,24.73
2022-11-05T08:07:37.439Z,27.00
2022-11-05T08:10:04.794Z,31.77
2022-11-05T08:12:32.470Z,34.03
2022-11-05T08:14:59.790Z,31.63
2022-11-05T08:17:26.907Z,25.80
2022-11-05T08:19:54.168Z,26.83
2022-11-05T08:22:21.723Z,31.70
2022-11-05T08:24:48.797Z,29.33
2022-11-05T08:27:16.166Z,26.37
2022-11-05T08:29:43.275Z,25.20
2022-11-05T08:32:10.515Z,28.60
2022-11-05T08:34:37.671Z,21.73
2022-11-05T08:37:04.816Z,24.20
2022-11-05T08:39:31.994Z,25.13
2022-11-05T08:41:59.566Z,22.30
2022-11-05T08:44:26.657Z,19.70
2022-11-05T08:46:54.338Z,22.57
2022-11-05T08:49:21.509Z,26.57
2022-11-05T08:51:48.568Z,29.23
2022-11-05T08:54:15.696Z,22.70
2022-11-05T08:56:42.789Z,20.40
2022-11-05T08:59:09.914Z,22.77
2022-11-05T09:01:37.118Z,16.30
2022-11-05T09:04:04.405Z,17.83
2022-11-05T09:06:31.570Z,17.80
2022-11-05T09:08:58.633Z,19.20
2022-11-05T09:11:43.048Z,19.87
2022-11-05T09:14:13.114Z,19.40
2022-11-05T09:16:40.225Z,18.33
2022-11-05T09:19:07.373Z,16.07
2022-11-05T09:21:34.679Z,16.33
2022-11-05T09:24:01.745Z,17.17
2022-11-05T09:26:29.175Z,17.50
2022-11-05T09:28:56.294Z,19.50
2022-11-05T09:31:23.405Z,17.07
2022-11-05T09:33:50.776Z,15.20
2022-11-05T09:36:17.930Z,20.13
2022-11-05T09:38:45.137Z,13.87
2022-11-05T09:41:19.653Z,17.17
2022-11-05T09:43:49.076Z,15.80
2022-11-05T09:46:19.659Z,15.60
2022-11-05T09:48:48.679Z,16.67
2022-11-05T09:51:23.509Z,16.00
2022-11-05T09:53:51.340Z,12.60
2022-11-05T09:56:27.227Z,13.53
2022-11-05T09:58:57.368Z,17.60
2022-11-05T10:01:26.712Z,16.30
2022-11-05T10:03:57.431Z,14.63
2022-11-05T10:06:28.446Z,14.53
2022-11-05T10:09:00.686Z,14.17
2022-11-05T10:11:37.322Z,15.27
2022-11-05T10:14:11.624Z,10.43
2022-11-05T10:16:41.622Z,13.37
2022-11-05T10:19:10.434Z,11.97
2022-11-05T10:22:05.095Z,11.37
2022-11-05T10:24:25.461Z,17.03
2022-11-05T10:26:53.854Z,9.87
2022-11-05T10:29:29.532Z,15.73
2022-11-05T10:32:00.519Z,11.47
2022-11-05T10:34:34.935Z,11.43
2022-11-05T10:37:02.135Z,14.47
2022-11-05T10:39:30.643Z,10.93
2022-11-05T10:42:22.061Z,10.50
2022-11-05T10:45:25.458Z,9.43
2022-11-05T10:48:19.658Z,8.73
2022-11-05T10:50:47.067Z,10.67
2022-11-05T10:53:25.807Z,8.07
2022-11-05T10:55:58.502Z,9.35
2022-11-05T10:58:34.771Z,10.55
2022-11-05T11:01:08.528Z,8.57
2022-11-05T11:03:35.214Z,7.07
2022-11-05T11:06:05.297Z,10.48
2022-11-05T11:08:35.602Z,8.10
2022-11-05T11:11:12.309Z,9.45
2022-11-05T11:13:57.279Z,10.50
2022-11-05T11:16:26.213Z,11.00
2022-11-05T11:19:00.502Z,6.57
2022-11-05T11:21:29.007Z,9.13
2022-11-05T11:23:57.545Z,6.53
2022-11-05T11:26:28.049Z,11.07
2022-11-05T11:28:57.903Z,7.82
2022-11-05T11:31:28.349Z,6.35
2022-11-05T11:34:02.068Z,8.60
2022-11-05T11:36:44.377Z,5.28
2022-11-05T11:39:19.928Z,11.90
2022-11-05T11:41:51.195Z,16.25
2022-11-05T11:44:20.799Z,9.07
2022-11-05T11:46:52.421Z,9.82
2022-11-05T11:49:42.346Z,5.10
2022-11-05T11:52:15.072Z,7.53
2022-11-05T11:54:42.124Z,8.43
2022-11-05T11:57:30.825Z,5.28
2022-11-05T12:00:08.725Z,5.28
2022-11-05T12:03:09.245Z,13.23
2022-11-05T12:05:45.279Z,10.98
2022-11-05T12:08:33.555Z,9.00
2022-11-05T12:11:07.504Z,6.60
2022-11-05T12:13:43.245Z,6.38
2022-11-05T12:16:15.943Z,5.10
2022-11-05T12:19:10.658Z,6.80
2022-11-05T12:21:52.982Z,7.53
2022-11-05T12:24:28.994Z,9.05
2022-11-05T12:27:20.923Z,7.85
2022-11-05T12:29:47.589Z,7.70
2022-11-05T12:32:33.325Z,16.23
2022-11-05T12:35:44.214Z,7.57
2022-11-05T12:38:22.459Z,5.63
2022-11-05T12:40:59.152Z,6.17
2022-11-05T12:43:51.675Z,12.13
2022-11-05T12:46:27.662Z,8.03
2022-11-05T12:48:54.300Z,5.73
2022-11-05T12:51:43.936Z,5.80
2022-11-05T12:54:28.984Z,5.60
2022-11-05T12:57:03.301Z,6.57
2022-11-05T12:59:47.987Z,7.25
2022-11-05T13:02:28.797Z,5.27
2022-11-05T13:05:23.606Z,5.53
2022-11-05T13:08:22.866Z,6.07
2022-11-05T13:11:29.403Z,5.17
2022-11-05T13:14:16.309Z,5.07
2022-11-05T13:17:23.404Z,6.40
2022-11-05T13:19:59.547Z,6.07
2022-11-05T13:22:26.226Z,7.63
2022-11-05T13:24:59.439Z,5.10
2022-11-05T13:27:44.523Z,7.93
2022-11-05T13:30:38.147Z,6.07
2022-11-05T13:33:18.827Z,8.33
2022-11-05T13:36:24.911Z,6.07
2022-11-05T13:39:00.204Z,4.43
2022-11-05T13:41:45.642Z,8.40
2022-11-05T13:44:47.119Z,5.80
2022-11-05T13:47:55.605Z,6.80
2022-11-05T13:50:59.867Z,12.10
2022-11-05T13:53:52.072Z,8.63
2022-11-05T13:56:54.405Z,7.53
2022-11-05T13:59:35.780Z,5.57
2022-11-05T14:02:10.810Z,6.70
2022-11-05T14:05:01.926Z,4.40
2022-11-05T14:07:35.812Z,5.57
2022-11-05T14:10:32.155Z,6.03
2022-11-05T14:13:03.054Z,6.30
2022-11-05T14:15:30.908Z,7.73
2022-11-05T14:18:26.475Z,7.50
2022-11-05T14:21:02.302Z,5.20
2022-11-05T14:23:39.430Z,6.03
2022-11-05T14:26:12.539Z,7.20
2022-11-05T14:28:47.993Z,6.20
2022-11-05T14:32:07.835Z,5.53
2022-11-05T14:34:43.528Z,6.20
2022-11-05T14:37:10.249Z,5.40
2022-11-05T14:39:37.369Z,7.13
2022-11-05T14:42:11.856Z,6.23
2022-11-05T14:44:57.171Z,8.63
2022-11-05T14:47:27.611Z,5.77
2022-11-05T14:50:03.218Z,5.03
2022-11-05T14:52:30.049Z,5.20
2022-11-05T14:54:58.512Z,4.93
2022-11-05T14:57:43.210Z,7.60
2022-11-05T15:00:28.512Z,7.57
2022-11-05T15:03:04.110Z,6.70
2022-11-05T15:06:03.158Z,5.40
2022-11-05T15:08:29.793Z,7.33
2022-11-05T15:11:13.071Z,6.03
2022-11-05T15:14:11.778Z,5.30
2022-11-05T15:16:44.672Z,9.60
2022-11-05T15:19:31.466Z,4.77
2022-11-05T15:22:03.115Z,4.97
2022-11-05T15:24:30.885Z,5.00
2022-11-05T15:27:03.418Z,5.63
2022-11-05T15:29:32.824Z,9.80
2022-11-05T15:32:00.369Z,6.30
2022-11-05T15:34:32.561Z,6.20
2022-11-05T15:37:23.623Z,6.00
2022-11-05T15:39:52.210Z,5.57
2022-11-05T15:42:22.988Z,5.63
2022-11-05T15:44:55.041Z,5.03
2022-11-05T15:47:24.566Z,5.07
2022-11-05T15:49:59.633Z,10.93
2022-11-05T15:52:36.567Z,7.70
2022-11-05T15:55:08.138Z,4.40
2022-11-05T15:57:39.852Z,4.07
2022-11-05T16:00:15.582Z,6.20
2022-11-05T16:02:42.853Z,4.80
2022-11-05T16:05:13.037Z,5.40
2022-11-05T16:07:47.218Z,3.67
2022-11-05T16:10:24.569Z,4.70
2022-11-05T16:12:51.498Z,3.37
2022-11-05T16:15:21.613Z,4.93
2022-11-05T16:17:57.608Z,3.70
2022-11-05T16:20:38.355Z,5.53
2022-11-05T16:23:07.941Z,3.10
2022-11-05T16:25:42.830Z,5.67
2022-11-05T16:28:25.704Z,4.77
2022-11-05T16:30:59.527Z,4.53
2022-11-05T16:33:38.717Z,3.73
2022-11-05T16:36:07.485Z,12.00
2022-11-05T16:38:34.253Z,4.50
2022-11-05T16:41:00.907Z,8.80
2022-11-05T16:43:27.730Z,5.83
2022-11-05T16:45:58.375Z,4.73
2022-11-05T16:48:26.201Z,5.13
2022-11-05T16:50:53.625Z,3.60
2022-11-05T16:53:20.338Z,4.87
2022-11-05T16:55:47.138Z,4.93
2022-11-05T16:58:25.019Z,3.73
2022-11-05T17:01:04.670Z,7.30
2022-11-05T17:03:31.510Z,4.73
2022-11-05T17:05:58.213Z,6.57
2022-11-05T17:08:24.955Z,7.30
2022-11-05T17:10:51.799Z,7.00
2022-11-05T17:13:19.604Z,6.10
2022-11-05T17:15:49.464Z,5.10
2022-11-05T17:18:18.788Z,6.83
2022-11-05T17:20:52.337Z,6.93
2022-11-05T17:23:21.575Z,6.17
2022-11-05T17:25:51.316Z,5.87
2022-11-05T17:28:20.397Z,5.67
2022-11-05T17:30:54.110Z,8.97
2022-11-05T17:33:23.160Z,5.70
2022-11-05T17:35:50.629Z,4.60
2022-11-05T17:38:17.636Z,6.00
2022-11-05T17:40:44.600Z,6.23
2022-11-05T17:43:11.740Z,5.70
2022-11-05T17:45:47.260Z,4.67
2022-11-05T17:48:15.272Z,6.67
2022-11-05T17:50:43.784Z,4.10
2022-11-05T17:53:12.040Z,3.40
2022-11-05T17:55:43.561Z,5.93
2022-11-05T17:58:10.773Z,4.10
2022-11-05T18:00:38.404Z,5.30
2022-11-05T18:03:05.353Z,3.33
2022-11-05T18:05:33.868Z,4.67
2022-11-05T18:08:00.846Z,5.23
2022-11-05T18:10:27.781Z,4.97
2022-11-05T18:12:54.503Z,5.90
2022-11-05T18:15:21.486Z,6.80
2022-11-05T18:17:48.276Z,4.37
2022-11-05T18:20:19.104Z,5.10
2022-11-05T18:22:49.228Z,3.97
2022-11-05T18:25:16.733Z,3.73
2022-11-05T18:27:44.083Z,6.97
2022-11-05T18:30:14.065Z,8.93
2022-11-05T18:32:41.326Z,4.70
2022-11-05T18:35:08.730Z,4.63
2022-11-05T18:37:37.766Z,8.50
2022-11-05T18:40:05.644Z,13.13
2022-11-05T18:42:32.330Z,7.93
2022-11-05T18:44:59.061Z,5.70
2022-11-05T18:47:25.921Z,7.53
2022-11-05T18:49:52.592Z,6.07
2022-11-05T18:52:19.254Z,5.83
2022-11-05T18:54:45.920Z,7.40
2022-11-05T18:57:12.653Z,5.97
2022-11-05T18:59:42.057Z,6.10
2022-11-05T19:02:11.074Z,6.00
2022-11-05T19:04:38.373Z,6.73
2022-11-05T19:07:06.154Z,6.53
2022-11-05T19:09:37.280Z,5.27
2022-11-05T19:12:05.082Z,9.03
2022-11-05T19:14:31.945Z,7.33
2022-11-05T19:16:59.623Z,6.90
2022-11-05T19:19:26.853Z,11.57
2022-11-05T19:21:53.987Z,6.63
2022-11-05T19:24:20.663Z,6.37
2022-11-05T19:26:48.061Z,7.60
2022-11-05T19:29:14.916Z,4.53
2022-11-05T19:31:41.928Z,4.90
2022-11-05T19:34:08.868Z,9.07
2022-11-05T19:36:35.653Z,4.80
2022-11-05T19:39:06.308Z,4.50
2022-11-05T19:41:33.199Z,5.43
2022-11-05T19:44:01.728Z,5.20
2022-11-05T19:46:30.288Z,9.10
2022-11-05T19:48:59.003Z,6.87
2022-11-05T19:51:27.674Z,5.90
2022-11-05T19:53:55.376Z,6.57
2022-11-05T19:56:25.999Z,7.43
2022-11-05T19:58:53.642Z,5.53
2022-11-05T20:01:22.012Z,6.10
2022-11-05T20:03:48.923Z,4.83
2022-11-05T20:06:25.773Z,9.33
2022-11-05T20:09:19.830Z,6.23
2022-11-05T20:11:40.145Z,7.13
2022-11-05T20:14:08.116Z,23.87
2022-11-05T20:16:40.190Z,5.53
2022-11-05T20:19:10.476Z,6.37
2022-11-05T20:21:38.169Z,7.07
2022-11-05T20:24:05.543Z,7.33
2022-11-05T20:26:32.800Z,5.27
2022-11-05T20:29:00.034Z,11.13
2022-11-05T20:31:26.947Z,5.33
2022-11-05T20:33:54.427Z,8.17
2022-11-05T20:36:22.901Z,5.73
2022-11-05T20:38:58.135Z,7.23
2022-11-05T20:41:26.017Z,6.03
2022-11-05T20:43:53.214Z,6.77
2022-11-05T20:46:21.825Z,8.80
2022-11-05T20:48:49.457Z,9.97
2022-11-05T20:51:18.835Z,9.30
2022-11-05T20:53:46.304Z,5.77
2022-11-05T20:56:17.135Z,8.67
2022-11-05T20:58:44.243Z,10.07
2022-11-05T21:01:13.147Z,5.87
2022-11-05T21:03:40.129Z,6.17
2022-11-05T21:06:07.622Z,7.33
2022-11-05T21:08:35.143Z,6.13
2022-11-05T21:11:02.886Z,7.13
2022-11-05T21:13:30.325Z,9.33
2022-11-05T21:15:58.756Z,9.77
2022-11-05T21:18:28.524Z,7.43
2022-11-05T21:20:55.896Z,6.57
2022-11-05T21:23:22.736Z,6.87
2022-11-05T21:25:49.816Z,9.63
2022-11-05T21:28:16.749Z,9.53
2022-11-05T21:30:45.916Z,7.67
2022-11-05T21:33:14.463Z,6.67
2022-11-05T21:35:45.436Z,7.47
2022-11-05T21:38:14.672Z,7.03
2022-11-05T21:40:41.844Z,4.70
2022-11-05T21:43:09.039Z,5.87
2022-11-05T21:45:38.756Z,7.47
2022-11-05T21:48:06.068Z,5.23
2022-11-05T21:50:51.467Z,6.07
2022-11-05T21:53:37.102Z,7.17
2022-11-05T21:56:32.138Z,7.93
2022-11-05T21:59:17.332Z,26.67
2022-11-05T22:01:44.131Z,5.50
2022-11-05T22:04:10.875Z,11.03
2022-11-05T22:06:37.538Z,6.40
2022-11-05T22:09:04.275Z,7.97
2022-11-05T22:11:36.095Z,7.33
2022-11-05T22:14:02.940Z,7.77
2022-11-05T22:16:29.722Z,5.20
2022-11-05T22:18:57.885Z,7.73
2022-11-05T22:21:24.728Z,7.03
2022-11-05T22:23:52.325Z,6.73
2022-11-05T22:26:19.106Z,5.93
2022-11-05T22:28:45.828Z,10.70
2022-11-05T22:31:16.862Z,8.93
2022-11-05T22:33:43.921Z,8.00
2022-11-05T22:36:11.327Z,10.70
2022-11-05T22:38:39.117Z,6.13
2022-11-05T22:41:17.437Z,7.87
2022-11-05T22:43:45.264Z,13.00
2022-11-05T22:46:21.282Z,7.93
2022-11-05T22:48:48.672Z,8.87
2022-11-05T22:51:18.645Z,7.07
2022-11-05T22:53:45.914Z,9.17
2022-11-05T22:56:15.312Z,9.37
2022-11-05T22:58:42.239Z,7.10
2022-11-05T23:01:11.792Z,8.03
2022-11-05T23:03:40.000Z,5.33
2022-11-05T23:06:30.195Z,4.97
2022-11-05T23:11:35.965Z,8.50
2022-11-05T23:14:03.134Z,9.60
2022-11-05T23:16:48.581Z,6.90
2022-11-05T23:19:34.136Z,9.47
2022-11-05T23:22:19.703Z,9.23
2022-11-05T23:24:47.461Z,5.33
2022-11-05T23:27:14.594Z,10.77
2022-11-05T23:29:41.290Z,8.00
2022-11-05T23:32:27.307Z,5.87
2022-11-05T23:34:56.478Z,6.13
2022-11-05T23:37:44.853Z,5.27
2022-11-05T23:40:16.538Z,6.77
2022-11-05T23:43:02.510Z,7.90
2022-11-05T23:45:49.298Z,8.87
2022-11-05T23:48:25.029Z,4.87
2022-11-05T23:51:14.834Z,5.73
2022-11-05T23:53:42.023Z,7.13
2022-11-05T23:56:10.590Z,7.10
2022-11-05T23:58:38.143Z,8.87
